createdAt,value
2022-11-27T00:02:11.586Z,88.55
2022-11-27T00:04:37.913Z,89.10
2022-11-27T00:07:04.283Z,89.43
2022-11-27T00:09:30.653Z,89.62
2022-11-27T00:11:56.966Z,89.93
2022-11-27T00:14:23.367Z,90.13
2022-11-27T00:16:49.676Z,90.18
2022-11-27T00:19:16.113Z,90.19
2022-11-27T00:21:42.465Z,90.17
2022-11-27T00:24:08.849Z,90.19
2022-11-27T00:26:38.050Z,90.15
2022-11-27T00:29:01.557Z,90.23
2022-11-27T00:31:28.012Z,90.39
2022-11-27T00:33:54.256Z,90.74
2022-11-27T00:36:20.576Z,91.17
2022-11-27T00:38:46.953Z,91.58
2022-11-27T00:41:13.268Z,91.64
2022-11-27T00:43:44.386Z,91.40
2022-11-27T00:46:06.045Z,91.21
2022-11-27T00:48:32.356Z,91.30
2022-11-27T00:50:58.676Z,91.35
2022-11-27T00:53:25.070Z,91.24
2022-11-27T00:55:51.474Z,91.21
2022-11-27T00:58:17.775Z,90.88
2022-11-27T01:00:44.134Z,91.07
2022-11-27T01:03:10.596Z,91.04
2022-11-27T01:05:36.919Z,90.95
2022-11-27T01:08:03.286Z,90.87
2022-11-27T01:10:29.607Z,90.70
2022-11-27T01:12:55.975Z,90.29
2022-11-27T01:15:22.296Z,90.18
2022-11-27T01:17:48.642Z,90.36
2022-11-27T01:20:14.967Z,90.67
2022-11-27T01:22:41.302Z,90.46
2022-11-27T01:25:07.653Z,90.09
2022-11-27T01:27:33.984Z,90.02
2022-11-27T01:30:00.362Z,89.92
2022-11-27T01:32:26.693Z,89.66
2022-11-27T01:34:54.413Z,89.60
2022-11-27T01:37:19.425Z,89.87
2022-11-27T01:39:45.731Z,89.31
2022-11-27T01:42:12.140Z,89.13
2022-11-27T01:44:38.645Z,89.41
2022-11-27T01:47:04.826Z,89.66
2022-11-27T01:49:31.211Z,89.92
2022-11-27T01:51:57.595Z,89.91
2022-11-27T01:54:23.901Z,89.70
2022-11-27T01:56:50.280Z,89.87
2022-11-27T01:59:16.594Z,90.12
2022-11-27T02:01:42.958Z,90.42
2022-11-27T02:04:09.313Z,90.76
2022-11-27T02:06:35.687Z,90.94
2022-11-27T02:09:02.036Z,90.99
2022-11-27T02:11:28.369Z,91.37
2022-11-27T02:13:54.685Z,91.44
2022-11-27T02:16:21.169Z,91.52
2022-11-27T02:18:47.471Z,91.52
2022-11-27T02:21:13.811Z,91.35
2022-11-27T02:23:40.170Z,91.25
2022-11-27T02:26:06.581Z,91.16
2022-11-27T02:28:32.903Z,91.08
2022-11-27T02:30:59.286Z,91.01
2022-11-27T02:33:25.553Z,90.78
2022-11-27T02:35:51.925Z,90.71
2022-11-27T02:38:18.327Z,90.82
2022-11-27T02:40:44.699Z,90.99
2022-11-27T02:43:11.054Z,91.30
2022-11-27T02:45:37.391Z,91.70
2022-11-27T02:48:03.746Z,91.92
2022-11-27T02:50:30.118Z,92.11
2022-11-27T02:52:56.503Z,92.15
2022-11-27T02:55:22.840Z,92.31
2022-11-27T02:57:49.160Z,92.46
2022-11-27T03:00:15.506Z,92.51
2022-11-27T03:02:41.942Z,92.75
2022-11-27T03:05:08.232Z,92.73
2022-11-27T03:07:34.637Z,92.70
2022-11-27T03:10:01.002Z,92.90
2022-11-27T03:12:27.313Z,93.12
2022-11-27T03:14:53.659Z,93.34
2022-11-27T03:17:20.018Z,93.31
2022-11-27T03:19:46.363Z,93.31
2022-11-27T03:22:12.716Z,93.40
2022-11-27T03:24:39.550Z,93.18
2022-11-27T03:27:05.405Z,92.82
2022-11-27T03:29:31.744Z,92.50
2022-11-27T03:31:58.078Z,92.26
2022-11-27T03:34:24.505Z,92.09
2022-11-27T03:36:50.851Z,92.08
2022-11-27T03:39:17.216Z,92.35
2022-11-27T03:41:43.611Z,92.12
2022-11-27T03:44:09.963Z,91.71
2022-11-27T03:46:36.335Z,91.56
2022-11-27T03:49:02.680Z,91.36
2022-11-27T03:51:28.993Z,91.17
2022-11-27T03:53:55.338Z,91.39
2022-11-27T03:56:21.672Z,91.44
2022-11-27T03:58:48.045Z,91.39
2022-11-27T04:01:14.394Z,90.89
2022-11-27T04:03:40.762Z,90.78
2022-11-27T04:06:07.031Z,90.56
2022-11-27T04:08:33.408Z,90.38
2022-11-27T04:10:59.718Z,90.61
2022-11-27T04:13:26.176Z,90.46
2022-11-27T04:15:52.514Z,90.39
2022-11-27T04:18:18.838Z,90.29
2022-11-27T04:20:45.154Z,90.48
2022-11-27T04:23:11.497Z,90.60
2022-11-27T04:25:37.851Z,90.54
2022-11-27T04:28:04.262Z,90.33
2022-11-27T04:30:30.608Z,90.30
2022-11-27T04:32:56.974Z,90.14
2022-11-27T04:35:23.325Z,89.95
2022-11-27T04:37:49.660Z,89.95
2022-11-27T04:40:16.035Z,90.11
2022-11-27T04:42:42.410Z,90.28
2022-11-27T04:45:08.767Z,90.46
2022-11-27T04:47:35.167Z,90.46
2022-11-27T04:50:01.477Z,90.12
2022-11-27T04:52:27.826Z,89.74
2022-11-27T04:54:59.624Z,89.73
2022-11-27T04:57:20.507Z,89.68
2022-11-27T04:59:46.852Z,89.71
2022-11-27T05:02:13.225Z,89.55
2022-11-27T05:04:39.803Z,89.47
2022-11-27T05:07:05.907Z,89.34
2022-11-27T05:09:32.257Z,89.30
2022-11-27T05:11:58.640Z,89.11
2022-11-27T05:14:24.996Z,89.04
2022-11-27T05:16:51.393Z,88.96
2022-11-27T05:19:17.706Z,88.98
2022-11-27T05:21:44.037Z,88.84
2022-11-27T05:24:10.355Z,89.07
2022-11-27T05:26:36.764Z,89.32
2022-11-27T05:29:03.113Z,89.28
2022-11-27T05:31:29.488Z,89.07
2022-11-27T05:33:55.795Z,89.07
2022-11-27T05:36:22.168Z,88.83
2022-11-27T05:38:48.512Z,88.63
2022-11-27T05:41:14.890Z,88.64
2022-11-27T05:43:41.242Z,88.48
2022-11-27T05:46:07.636Z,88.38
2022-11-27T05:48:33.990Z,88.41
2022-11-27T05:51:00.322Z,88.50
2022-11-27T05:53:26.676Z,88.56
2022-11-27T05:55:54.014Z,88.64
2022-11-27T05:58:20.333Z,88.70
2022-11-27T06:00:46.708Z,88.66
2022-11-27T06:03:13.120Z,88.70
2022-11-27T06:05:39.412Z,88.63
2022-11-27T06:08:05.767Z,88.68
2022-11-27T06:10:32.168Z,88.99
2022-11-27T06:12:58.523Z,89.02
2022-11-27T06:15:24.852Z,89.04
2022-11-27T06:17:51.225Z,88.81
2022-11-27T06:20:17.559Z,88.66
2022-11-27T06:22:43.912Z,88.46
2022-11-27T06:25:10.250Z,88.62
2022-11-27T06:27:36.563Z,88.75
2022-11-27T06:30:03.031Z,88.91
2022-11-27T06:32:29.362Z,88.79
2022-11-27T06:34:55.695Z,88.72
2022-11-27T06:37:22.173Z,88.72
2022-11-27T06:39:48.545Z,88.85
2022-11-27T06:42:14.884Z,89.01
2022-11-27T06:44:41.488Z,88.97
2022-11-27T06:47:07.545Z,88.66
2022-11-27T06:49:33.984Z,88.57
2022-11-27T06:52:00.651Z,88.48
2022-11-27T06:54:26.958Z,88.03
2022-11-27T06:56:53.278Z,87.85
2022-11-27T06:59:19.770Z,87.91
2022-11-27T07:01:46.100Z,87.81
2022-11-27T07:04:12.572Z,87.89
2022-11-27T07:06:38.877Z,87.65
2022-11-27T07:09:05.307Z,87.01
2022-11-27T07:11:31.664Z,86.69
2022-11-27T07:13:58.038Z,86.42
2022-11-27T07:16:24.398Z,86.14
2022-11-27T07:18:50.726Z,85.89
2022-11-27T07:21:17.052Z,85.51
2022-11-27T07:23:43.457Z,85.08
2022-11-27T07:26:09.768Z,84.72
2022-11-27T07:28:36.171Z,84.68
2022-11-27T07:31:02.532Z,84.35
2022-11-27T07:33:28.862Z,83.84
2022-11-27T07:35:55.229Z,83.50
2022-11-27T07:38:21.606Z,82.81
2022-11-27T07:40:47.931Z,82.45
2022-11-27T07:43:14.305Z,82.67
2022-11-27T07:45:40.774Z,82.50
2022-11-27T07:48:07.152Z,82.21
2022-11-27T07:50:33.461Z,81.95
2022-11-27T07:52:59.811Z,82.02
2022-11-27T07:55:26.141Z,81.57
2022-11-27T07:57:52.497Z,81.44
2022-11-27T08:00:18.813Z,81.24
2022-11-27T08:02:45.199Z,81.09
2022-11-27T08:05:13.241Z,80.71
2022-11-27T08:07:37.906Z,80.90
2022-11-27T08:10:04.266Z,81.10
2022-11-27T08:12:30.672Z,81.25
2022-11-27T08:14:57.059Z,81.66
2022-11-27T08:17:23.434Z,82.20
2022-11-27T08:19:49.747Z,82.22
2022-11-27T08:22:16.093Z,82.19
2022-11-27T08:24:42.885Z,82.10
2022-11-27T08:27:08.839Z,82.17
2022-11-27T08:29:35.226Z,81.47
2022-11-27T08:32:01.674Z,81.32
2022-11-27T08:34:27.910Z,81.76
2022-11-27T08:36:54.289Z,81.35
2022-11-27T08:39:20.675Z,81.12
2022-11-27T08:41:47.048Z,81.27
2022-11-27T08:44:13.367Z,81.19
2022-11-27T08:46:39.749Z,80.70
2022-11-27T08:49:06.068Z,81.25
2022-11-27T08:51:32.449Z,80.77
2022-11-27T08:53:58.807Z,81.33
2022-11-27T08:56:25.181Z,81.55
2022-11-27T08:58:51.535Z,81.48
2022-11-27T09:01:18.004Z,82.04
2022-11-27T09:03:44.293Z,82.17
2022-11-27T09:06:10.659Z,82.26
2022-11-27T09:08:37.012Z,81.96
2022-11-27T09:11:03.405Z,81.63
2022-11-27T09:13:29.799Z,81.43
2022-11-27T09:15:56.207Z,81.10
2022-11-27T09:18:22.490Z,80.30
2022-11-27T09:20:48.867Z,80.14
2022-11-27T09:23:15.220Z,79.92
2022-11-27T09:25:41.554Z,79.32
2022-11-27T09:28:07.892Z,79.66
2022-11-27T09:30:34.251Z,80.10
2022-11-27T09:33:00.597Z,79.88
2022-11-27T09:35:26.985Z,79.70
2022-11-27T09:37:53.299Z,79.01
2022-11-27T09:40:19.741Z,78.71
2022-11-27T09:42:46.085Z,78.03
2022-11-27T09:45:12.460Z,78.00
2022-11-27T09:47:41.616Z,77.45
2022-11-27T09:50:05.171Z,77.43
2022-11-27T09:52:31.495Z,77.70
2022-11-27T09:54:57.837Z,78.18
2022-11-27T09:57:24.196Z,78.47
2022-11-27T09:59:50.569Z,76.99
2022-11-27T10:02:16.973Z,76.16
2022-11-27T10:05:05.836Z,76.39
2022-11-27T10:07:09.598Z,76.64
2022-11-27T10:09:35.984Z,76.87
2022-11-27T10:12:02.368Z,76.96
2022-11-27T10:14:28.683Z,76.34
2022-11-27T10:16:55.121Z,75.71
2022-11-27T10:19:21.383Z,75.37
2022-11-27T10:21:47.835Z,75.53
2022-11-27T10:24:14.155Z,76.18
2022-11-27T10:26:40.529Z,75.25
2022-11-27T10:29:06.881Z,75.54
2022-11-27T10:31:33.279Z,75.49
2022-11-27T10:33:59.590Z,75.40
2022-11-27T10:36:25.969Z,75.00
2022-11-27T10:38:52.280Z,74.83
2022-11-27T10:41:41.974Z,74.91
2022-11-27T10:43:45.013Z,74.53
2022-11-27T10:46:11.458Z,73.92
2022-11-27T10:48:37.739Z,73.17
2022-11-27T10:51:04.160Z,74.28
2022-11-27T10:53:30.538Z,74.32
2022-11-27T10:55:56.916Z,73.79
2022-11-27T10:58:23.232Z,73.68
2022-11-27T11:00:49.650Z,73.74
2022-11-27T11:03:15.969Z,73.94
2022-11-27T11:06:04.549Z,73.80
2022-11-27T11:08:08.672Z,73.87
2022-11-27T11:10:35.073Z,73.52
2022-11-27T11:13:01.385Z,73.22
2022-11-27T11:15:27.729Z,73.70
2022-11-27T11:17:54.060Z,73.59
2022-11-27T11:20:20.520Z,73.91
2022-11-27T11:22:46.845Z,74.22
2022-11-27T11:25:13.186Z,73.66
2022-11-27T11:27:39.539Z,73.09
2022-11-27T11:30:05.916Z,72.58
2022-11-27T11:32:32.263Z,72.56
2022-11-27T11:35:01.217Z,72.76
2022-11-27T11:37:24.918Z,72.91
2022-11-27T11:39:51.301Z,73.37
2022-11-27T11:42:17.651Z,73.43
2022-11-27T11:44:44.086Z,72.87
2022-11-27T11:47:10.349Z,72.87
2022-11-27T11:49:36.700Z,72.46
2022-11-27T11:52:03.055Z,72.37
2022-11-27T11:54:29.422Z,71.79
2022-11-27T11:56:55.764Z,72.31
2022-11-27T11:59:22.107Z,71.63
2022-11-27T12:01:48.568Z,72.21
2022-11-27T12:04:14.862Z,72.00
2022-11-27T12:06:41.189Z,71.86
2022-11-27T12:09:07.526Z,71.90
2022-11-27T12:11:33.848Z,72.42
2022-11-27T12:14:00.256Z,72.64
2022-11-27T12:16:26.596Z,72.86
2022-11-27T12:18:52.909Z,73.05
2022-11-27T12:21:19.280Z,72.40
2022-11-27T12:23:45.617Z,72.32
2022-11-27T12:26:11.937Z,72.65
2022-11-27T12:28:38.329Z,72.99
2022-11-27T12:31:04.724Z,72.74
2022-11-27T12:33:31.057Z,73.10
2022-11-27T12:35:57.367Z,73.24
2022-11-27T12:38:23.747Z,73.48
2022-11-27T12:40:50.068Z,73.36
2022-11-27T12:43:16.414Z,73.17
2022-11-27T12:45:42.787Z,73.17
2022-11-27T12:48:09.084Z,73.15
2022-11-27T12:50:35.410Z,72.73
2022-11-27T12:53:01.813Z,72.41
2022-11-27T12:55:28.163Z,72.17
2022-11-27T12:57:54.494Z,71.89
2022-11-27T13:00:20.853Z,71.34
2022-11-27T13:02:47.269Z,70.66
2022-11-27T13:05:13.611Z,70.49
2022-11-27T13:07:41.291Z,70.30
2022-11-27T13:10:07.597Z,70.39
2022-11-27T13:12:33.957Z,69.63
2022-11-27T13:15:00.284Z,69.71
2022-11-27T13:17:26.714Z,69.44
2022-11-27T13:19:53.041Z,69.61
2022-11-27T13:22:19.380Z,69.89
2022-11-27T13:24:45.707Z,70.06
2022-11-27T13:27:12.089Z,70.00
2022-11-27T13:29:38.493Z,69.72
2022-11-27T13:32:04.960Z,69.70
2022-11-27T13:34:31.239Z,69.62
2022-11-27T13:36:57.583Z,69.37
2022-11-27T13:39:23.952Z,69.50
2022-11-27T13:41:50.343Z,69.87
2022-11-27T13:44:16.645Z,70.09
2022-11-27T13:46:43.056Z,70.11
2022-11-27T13:49:09.373Z,70.55
2022-11-27T13:51:35.762Z,70.12
2022-11-27T13:54:02.130Z,69.94
2022-11-27T13:56:28.467Z,69.83
2022-11-27T13:58:54.838Z,69.97
2022-11-27T14:01:21.295Z,69.56
2022-11-27T14:03:47.562Z,69.10
2022-11-27T14:06:13.936Z,68.54
2022-11-27T14:08:40.263Z,68.62
2022-11-27T14:11:06.644Z,68.44
2022-11-27T14:13:32.960Z,68.23
2022-11-27T14:15:59.362Z,67.87
2022-11-27T14:18:25.686Z,67.57
2022-11-27T14:20:52.036Z,66.78
2022-11-27T14:23:18.405Z,66.65
2022-11-27T14:25:44.777Z,66.91
2022-11-27T14:28:11.205Z,66.47
2022-11-27T14:30:37.660Z,66.74
2022-11-27T14:33:04.005Z,66.41
2022-11-27T14:35:30.387Z,66.60
2022-11-27T14:37:56.752Z,67.51
2022-11-27T14:40:23.107Z,67.30
2022-11-27T14:42:49.466Z,67.53
2022-11-27T14:45:15.806Z,67.49
2022-11-27T14:47:42.132Z,67.57
2022-11-27T14:50:08.634Z,67.68
2022-11-27T14:52:34.950Z,67.92
2022-11-27T14:55:01.336Z,67.73
2022-11-27T14:57:27.670Z,67.65
2022-11-27T14:59:54.077Z,67.51
2022-11-27T15:02:24.599Z,67.17
2022-11-27T15:04:46.842Z,66.81
2022-11-27T15:07:13.209Z,66.55
2022-11-27T15:09:39.593Z,66.69
2022-11-27T15:12:05.943Z,66.97
2022-11-27T15:14:32.377Z,66.99
2022-11-27T15:16:58.707Z,67.04
2022-11-27T15:19:26.444Z,66.79
2022-11-27T15:21:51.500Z,67.13
2022-11-27T15:24:17.843Z,67.56
2022-11-27T15:26:44.225Z,67.67
2022-11-27T15:29:10.597Z,67.99
2022-11-27T15:31:37.020Z,68.24
2022-11-27T15:34:03.289Z,68.55
2022-11-27T15:36:29.637Z,68.71
2022-11-27T15:38:55.968Z,69.14
2022-11-27T15:41:22.321Z,69.16
2022-11-27T15:43:48.674Z,69.36
2022-11-27T15:46:15.105Z,69.39
2022-11-27T15:48:41.401Z,69.36
2022-11-27T15:51:07.771Z,69.64
2022-11-27T15:53:34.157Z,69.45
2022-11-27T15:56:00.605Z,69.54
2022-11-27T15:58:27.073Z,69.37
2022-11-27T16:00:53.487Z,69.34
2022-11-27T16:03:19.844Z,68.07
2022-11-27T16:05:46.202Z,68.81
2022-11-27T16:08:12.574Z,68.57
2022-11-27T16:10:38.925Z,68.78
2022-11-27T16:13:05.303Z,68.66
2022-11-27T16:15:33.098Z,68.74
2022-11-27T16:17:58.012Z,69.09
2022-11-27T16:20:24.369Z,69.43
2022-11-27T16:22:50.807Z,69.66
2022-11-27T16:25:17.146Z,69.80
2022-11-27T16:27:43.494Z,69.86
2022-11-27T16:30:09.866Z,70.16
2022-11-27T16:32:36.253Z,70.60
2022-11-27T16:35:02.718Z,70.83
2022-11-27T16:37:29.093Z,71.20
2022-11-27T16:39:55.411Z,71.42
2022-11-27T16:42:21.755Z,71.74
2022-11-27T16:44:48.126Z,72.11
2022-11-27T16:47:14.497Z,72.41
2022-11-27T16:49:40.853Z,72.70
2022-11-27T16:52:07.209Z,73.14
2022-11-27T16:54:33.556Z,73.40
2022-11-27T16:56:59.894Z,73.62
2022-11-27T16:59:26.287Z,73.89
2022-11-27T17:01:52.683Z,74.35
2022-11-27T17:04:18.970Z,74.82
2022-11-27T17:06:45.312Z,75.34
2022-11-27T17:09:11.640Z,76.02
2022-11-27T17:11:37.983Z,76.23
2022-11-27T17:14:04.304Z,76.29
2022-11-27T17:16:30.781Z,76.25
2022-11-27T17:18:57.140Z,76.35
2022-11-27T17:21:23.594Z,76.77
2022-11-27T17:23:49.909Z,77.28
2022-11-27T17:26:16.250Z,77.75
2022-11-27T17:28:42.629Z,78.06
2022-11-27T17:31:09.109Z,78.41
2022-11-27T17:33:35.402Z,78.58
2022-11-27T17:36:01.749Z,78.63
2022-11-27T17:38:28.153Z,78.89
2022-11-27T17:40:54.487Z,79.19
2022-11-27T17:43:20.806Z,79.30
2022-11-27T17:45:47.239Z,79.36
2022-11-27T17:48:13.482Z,79.57
2022-11-27T17:50:39.866Z,79.86
2022-11-27T17:53:06.232Z,80.23
2022-11-27T17:55:32.595Z,80.59
2022-11-27T17:57:58.937Z,80.40
2022-11-27T18:00:25.319Z,80.22
2022-11-27T18:02:51.682Z,80.28
2022-11-27T18:05:18.089Z,80.24
2022-11-27T18:07:44.526Z,80.15
2022-11-27T18:10:10.846Z,79.83
2022-11-27T18:12:37.248Z,79.47
2022-11-27T18:15:03.644Z,79.24
2022-11-27T18:17:29.958Z,78.93
2022-11-27T18:19:56.353Z,78.78
2022-11-27T18:22:22.719Z,78.75
2022-11-27T18:24:49.069Z,78.79
2022-11-27T18:27:15.395Z,78.90
2022-11-27T18:29:42.411Z,78.96
2022-11-27T18:32:08.449Z,79.08
2022-11-27T18:34:34.680Z,78.97
2022-11-27T18:37:01.088Z,79.05
2022-11-27T18:39:27.413Z,79.62
2022-11-27T18:41:53.735Z,79.79
2022-11-27T18:44:20.148Z,80.18
2022-11-27T18:46:46.517Z,80.67
2022-11-27T18:49:12.940Z,80.76
2022-11-27T18:51:39.269Z,81.26
2022-11-27T18:54:05.666Z,81.85
2022-11-27T18:56:32.023Z,82.24
2022-11-27T18:58:58.362Z,82.64
2022-11-27T19:01:24.753Z,83.25
2022-11-27T19:03:51.061Z,83.65
2022-11-27T19:06:17.377Z,83.76
2022-11-27T19:08:43.762Z,83.83
2022-11-27T19:11:10.153Z,84.07
2022-11-27T19:13:36.500Z,84.55
2022-11-27T19:16:02.922Z,84.84
2022-11-27T19:18:29.326Z,85.33
2022-11-27T19:20:55.667Z,85.66
2022-11-27T19:23:22.094Z,85.69
2022-11-27T19:25:48.437Z,85.49
2022-11-27T19:28:14.784Z,84.97
2022-11-27T19:30:41.164Z,84.65
2022-11-27T19:33:07.497Z,84.93
2022-11-27T19:35:33.881Z,85.09
2022-11-27T19:38:00.252Z,83.98
2022-11-27T19:40:26.625Z,82.51
2022-11-27T19:42:57.964Z,80.31
2022-11-27T19:45:19.334Z,79.90
2022-11-27T19:47:45.720Z,79.94
2022-11-27T19:50:12.023Z,80.75
2022-11-27T19:52:38.420Z,80.95
2022-11-27T19:55:04.809Z,80.62
2022-11-27T19:57:31.188Z,81.09
2022-11-27T19:59:57.502Z,81.09
2022-11-27T20:02:23.902Z,80.59
2022-11-27T20:04:50.237Z,80.59
2022-11-27T20:07:16.638Z,81.16
2022-11-27T20:09:42.932Z,81.91
2022-11-27T20:12:09.277Z,82.48
2022-11-27T20:14:35.648Z,83.03
2022-11-27T20:17:02.185Z,84.17
2022-11-27T20:19:28.487Z,84.71
2022-11-27T20:21:54.852Z,85.59
2022-11-27T20:24:21.170Z,86.57
2022-11-27T20:26:47.614Z,87.26
2022-11-27T20:29:13.896Z,87.63
2022-11-27T20:31:40.306Z,87.96
2022-11-27T20:34:06.616Z,88.11
2022-11-27T20:36:32.977Z,88.73
2022-11-27T20:38:59.379Z,89.41
2022-11-27T20:41:25.770Z,90.12
2022-11-27T20:43:52.140Z,90.45
2022-11-27T20:46:18.558Z,90.76
2022-11-27T20:48:44.896Z,90.83
2022-11-27T20:51:11.205Z,91.39
2022-11-27T20:53:37.546Z,91.81
2022-11-27T20:56:03.864Z,91.23
2022-11-27T20:58:30.199Z,91.12
2022-11-27T21:00:56.536Z,91.00
2022-11-27T21:03:22.892Z,90.84
2022-11-27T21:05:49.241Z,90.66
2022-11-27T21:08:15.655Z,90.66
2022-11-27T21:10:42.011Z,90.02
2022-11-27T21:13:08.385Z,89.80
2022-11-27T21:15:34.738Z,89.43
2022-11-27T21:18:01.076Z,90.11
2022-11-27T21:20:27.438Z,90.42
2022-11-27T21:22:53.803Z,90.28
2022-11-27T21:25:25.149Z,90.50
2022-11-27T21:27:46.547Z,90.59
2022-11-27T21:30:12.912Z,90.62
2022-11-27T21:32:39.296Z,91.38
2022-11-27T21:35:05.597Z,91.41
2022-11-27T21:37:31.944Z,91.55
2022-11-27T21:39:58.334Z,91.07
2022-11-27T21:42:24.635Z,91.80
2022-11-27T21:44:51.011Z,90.83
2022-11-27T21:47:17.381Z,90.91
2022-11-27T21:49:43.687Z,90.81
2022-11-27T21:52:10.087Z,90.81
2022-11-27T21:54:36.409Z,91.80
2022-11-27T21:57:02.773Z,92.19
2022-11-27T21:59:29.091Z,92.29
2022-11-27T22:01:55.474Z,92.26
2022-11-27T22:04:21.798Z,92.27
2022-11-27T22:06:48.333Z,92.11
2022-11-27T22:09:15.996Z,92.22
2022-11-27T22:11:40.820Z,92.37
2022-11-27T22:14:07.210Z,92.11
2022-11-27T22:16:33.590Z,91.96
2022-11-27T22:18:59.922Z,92.26
2022-11-27T22:21:26.301Z,91.90
2022-11-27T22:23:52.659Z,92.31
2022-11-27T22:26:18.993Z,92.67
2022-11-27T22:28:45.322Z,92.74
2022-11-27T22:31:11.790Z,93.26
2022-11-27T22:33:38.038Z,93.33
2022-11-27T22:36:04.411Z,93.44
2022-11-27T22:38:30.704Z,93.98
2022-11-27T22:40:57.147Z,94.53
2022-11-27T22:43:23.513Z,94.58
2022-11-27T22:45:49.852Z,94.86
2022-11-27T22:48:16.192Z,95.05
2022-11-27T22:50:42.527Z,95.00
2022-11-27T22:53:08.878Z,95.40
2022-11-27T22:55:35.238Z,95.62
2022-11-27T22:58:01.564Z,95.93
2022-11-27T23:00:27.897Z,95.89
2022-11-27T23:02:54.316Z,96.47
2022-11-27T23:05:20.661Z,96.67
2022-11-27T23:07:47.104Z,95.89
2022-11-27T23:10:13.408Z,96.44
2022-11-27T23:12:39.880Z,96.54
2022-11-27T23:15:06.207Z,96.42
2022-11-27T23:17:32.551Z,96.31
2022-11-27T23:19:58.942Z,96.33
2022-11-27T23:22:25.446Z,97.03
2022-11-27T23:24:51.765Z,96.95
2022-11-27T23:27:18.081Z,97.53
2022-11-27T23:29:44.420Z,97.92
2022-11-27T23:32:10.820Z,98.51
2022-11-27T23:34:37.118Z,98.36
2022-11-27T23:37:03.458Z,98.79
2022-11-27T23:39:29.838Z,98.77
2022-11-27T23:41:56.268Z,99.54
2022-11-27T23:44:22.643Z,100.00
2022-11-27T23:46:48.956Z,100.00
2022-11-27T23:49:15.333Z,100.00
2022-11-27T23:51:41.666Z,100.00
2022-11-27T23:54:08.042Z,100.00
2022-11-27T23:56:34.328Z,100.00
2022-11-27T23:59:00.711Z,100.00
